createdAt,value
2016-07-18T00:00:04.168Z,959.18
2016-07-18T00:01:04.162Z,959.15
2016-07-18T00:02:04.154Z,959.14
2016-07-18T00:03:04.159Z,959.19
2016-07-18T00:04:04.155Z,959.16
2016-07-18T00:05:04.144Z,959.15
2016-07-18T00:06:04.145Z,959.17
2016-07-18T00:07:04.140Z,959.21
2016-07-18T00:08:04.133Z,959.19
2016-07-18T00:09:04.129Z,959.15
2016-07-18T00:10:04.129Z,959.18
2016-07-18T00:11:04.133Z,959.13
2016-07-18T00:12:04.124Z,959.11
2016-07-18T00:13:04.113Z,959.11
2016-07-18T00:14:04.112Z,959.13
2016-07-18T00:15:04.118Z,959.1
2016-07-18T00:16:04.105Z,959.1
2016-07-18T00:17:04.107Z,959.14
2016-07-18T00:18:04.103Z,959.12
2016-07-18T00:19:04.095Z,959.14
2016-07-18T00:20:04.092Z,959.1
2016-07-18T00:21:04.089Z,959.14
2016-07-18T00:22:04.081Z,959.15
2016-07-18T00:23:04.083Z,959.12
2016-07-18T00:24:04.079Z,959.08
2016-07-18T00:25:04.077Z,959.07
2016-07-18T00:26:04.075Z,959.08
2016-07-18T00:27:04.072Z,959.09
2016-07-18T00:28:04.065Z,959.06
2016-07-18T00:29:04.064Z,959.05
2016-07-18T00:30:04.061Z,959.06
2016-07-18T00:31:04.058Z,959.03
2016-07-18T00:32:04.049Z,959.03
2016-07-18T00:33:04.049Z,959.04
2016-07-18T00:34:04.046Z,959.03
2016-07-18T00:35:04.044Z,959.01
2016-07-18T00:36:04.046Z,959.05
2016-07-18T00:37:04.040Z,959.04
2016-07-18T00:38:04.032Z,959.07
2016-07-18T00:39:04.029Z,959.04
2016-07-18T00:40:04.025Z,959.05
2016-07-18T00:41:04.023Z,959.05
2016-07-18T00:42:04.021Z,959.03
2016-07-18T00:43:04.020Z,959.03
2016-07-18T00:44:04.015Z,959.03
2016-07-18T00:45:04.064Z,959.04
2016-07-18T00:46:04.009Z,959.08
2016-07-18T00:47:04.005Z,959.09
2016-07-18T00:48:04.009Z,959.03
2016-07-18T00:49:03.997Z,959.11
2016-07-18T00:50:03.999Z,959.08
2016-07-18T00:51:03.998Z,959.07
2016-07-18T00:52:03.994Z,959.11
2016-07-18T00:53:03.995Z,959.07
2016-07-18T00:54:03.987Z,959.08
2016-07-18T00:55:03.982Z,959.05
2016-07-18T00:56:03.980Z,959.04
2016-07-18T00:57:03.979Z,959.03
2016-07-18T00:58:03.972Z,959.03
2016-07-18T00:59:03.969Z,959.05
2016-07-18T01:00:03.966Z,959.04
2016-07-18T01:01:03.965Z,959.03
2016-07-18T01:02:03.964Z,959.01
2016-07-18T01:03:03.961Z,959.04
2016-07-18T01:04:03.963Z,959.01
2016-07-18T01:05:04.320Z,958.99
2016-07-18T01:06:03.950Z,959.03
2016-07-18T01:07:03.951Z,959.01
2016-07-18T01:08:03.943Z,959.01
2016-07-18T01:09:03.943Z,959.01
2016-07-18T01:10:03.939Z,958.97
2016-07-18T01:11:03.937Z,958.97
2016-07-18T01:12:03.933Z,958.97
2016-07-18T01:13:03.936Z,958.97
2016-07-18T01:14:03.930Z,958.96
2016-07-18T01:15:03.927Z,958.93
2016-07-18T01:16:03.922Z,958.93
2016-07-18T01:17:03.927Z,958.9
2016-07-18T01:18:03.939Z,958.89
2016-07-18T01:19:03.917Z,958.92
2016-07-18T01:20:03.909Z,958.88
2016-07-18T01:21:03.917Z,958.91
2016-07-18T01:22:03.904Z,958.88
2016-07-18T01:23:03.910Z,958.93
2016-07-18T01:24:03.903Z,958.88
2016-07-18T01:25:03.909Z,958.92
2016-07-18T01:26:03.898Z,958.94
2016-07-18T01:27:03.896Z,958.92
2016-07-18T01:28:03.896Z,958.94
2016-07-18T01:29:03.896Z,958.97
2016-07-18T01:30:03.893Z,958.91
2016-07-18T01:31:03.895Z,958.95
2016-07-18T01:32:03.892Z,958.89
2016-07-18T01:33:03.894Z,958.9
2016-07-18T01:34:04.073Z,958.93
2016-07-18T01:35:04.066Z,958.97
2016-07-18T01:36:03.864Z,958.92
2016-07-18T01:37:03.859Z,958.95
2016-07-18T01:38:03.867Z,958.92
2016-07-18T01:39:03.856Z,958.97
2016-07-18T01:40:03.851Z,958.93
2016-07-18T01:41:03.853Z,958.9
2016-07-18T01:42:03.844Z,958.92
2016-07-18T01:43:03.845Z,958.91
2016-07-18T01:44:03.842Z,958.93
2016-07-18T01:45:03.847Z,958.95
2016-07-18T01:46:03.833Z,958.93
2016-07-18T01:47:03.831Z,958.92
2016-07-18T01:48:03.835Z,958.91
2016-07-18T01:49:03.830Z,958.9
2016-07-18T01:50:03.821Z,958.87
2016-07-18T01:51:03.828Z,958.86
2016-07-18T01:52:03.817Z,958.88
2016-07-18T01:53:03.817Z,958.89
2016-07-18T01:54:03.816Z,958.87
2016-07-18T01:55:03.814Z,958.86
2016-07-18T01:56:03.816Z,958.85
2016-07-18T01:57:03.807Z,958.85
2016-07-18T01:58:03.808Z,958.84
2016-07-18T01:59:03.808Z,958.82
2016-07-18T02:00:03.808Z,958.82
2016-07-18T02:01:03.811Z,958.8
2016-07-18T02:02:03.805Z,958.84
2016-07-18T02:03:03.811Z,958.82
2016-07-18T02:04:03.801Z,958.8
2016-07-18T02:05:03.981Z,958.8
2016-07-18T02:06:03.773Z,958.78
2016-07-18T02:07:03.774Z,958.8
2016-07-18T02:08:03.770Z,958.79
2016-07-18T02:09:03.775Z,958.79
2016-07-18T02:10:03.769Z,958.75
2016-07-18T02:11:03.769Z,958.76
2016-07-18T02:12:03.770Z,958.75
2016-07-18T02:13:03.768Z,958.8
2016-07-18T02:14:03.967Z,958.79
2016-07-18T02:15:03.765Z,958.81
2016-07-18T02:16:03.769Z,958.78
2016-07-18T02:17:03.773Z,958.77
2016-07-18T02:18:03.759Z,958.77
2016-07-18T02:19:03.756Z,958.79
2016-07-18T02:20:03.767Z,958.77
2016-07-18T02:21:03.752Z,958.73
2016-07-18T02:22:03.726Z,958.78
2016-07-18T02:23:03.727Z,958.77
2016-07-18T02:24:03.723Z,958.74
2016-07-18T02:25:03.723Z,958.76
2016-07-18T02:26:03.719Z,958.76
2016-07-18T02:27:03.713Z,958.75
2016-07-18T02:28:03.708Z,958.72
2016-07-18T02:29:03.708Z,958.73
2016-07-18T02:30:03.704Z,958.76
2016-07-18T02:31:03.700Z,958.72
2016-07-18T02:32:03.705Z,958.75
2016-07-18T02:33:03.695Z,958.76
2016-07-18T02:34:03.691Z,958.81
2016-07-18T02:35:03.690Z,958.77
2016-07-18T02:36:03.686Z,958.76
2016-07-18T02:37:03.690Z,958.78
2016-07-18T02:38:03.690Z,958.8
2016-07-18T02:39:03.680Z,958.83
2016-07-18T02:40:03.678Z,958.81
2016-07-18T02:41:03.671Z,958.87
2016-07-18T02:42:03.674Z,958.85
2016-07-18T02:43:03.672Z,958.86
2016-07-18T02:44:03.664Z,958.84
2016-07-18T02:45:03.739Z,958.86
2016-07-18T02:46:03.655Z,958.89
2016-07-18T02:47:03.653Z,958.86
2016-07-18T02:48:03.649Z,958.91
2016-07-18T02:49:03.648Z,958.95
2016-07-18T02:50:03.646Z,958.89
2016-07-18T02:51:03.647Z,958.9
2016-07-18T02:52:03.641Z,958.93
2016-07-18T02:53:03.638Z,958.89
2016-07-18T02:54:03.636Z,958.92
2016-07-18T02:55:03.634Z,958.96
2016-07-18T02:56:03.638Z,958.93
2016-07-18T02:57:03.626Z,958.95
2016-07-18T02:58:03.623Z,958.94
2016-07-18T02:59:03.616Z,958.95
2016-07-18T03:00:03.622Z,958.92
2016-07-18T03:01:03.614Z,958.92
2016-07-18T03:02:03.608Z,958.99
2016-07-18T03:03:03.613Z,958.95
2016-07-18T03:04:03.606Z,958.93
2016-07-18T03:05:03.603Z,958.93
2016-07-18T03:06:03.603Z,958.93
2016-07-18T03:07:03.597Z,958.94
2016-07-18T03:08:03.589Z,958.98
2016-07-18T03:09:03.585Z,958.97
2016-07-18T03:10:03.589Z,958.97
2016-07-18T03:11:03.585Z,958.96
2016-07-18T03:12:03.578Z,958.94
2016-07-18T03:13:03.582Z,958.96
2016-07-18T03:14:03.578Z,958.97
2016-07-18T03:15:03.568Z,958.95
2016-07-18T03:16:03.568Z,958.94
2016-07-18T03:17:03.567Z,958.97
2016-07-18T03:18:03.559Z,958.92
2016-07-18T03:19:03.556Z,958.91
2016-07-18T03:20:03.556Z,958.94
2016-07-18T03:21:03.561Z,958.95
2016-07-18T03:22:03.551Z,958.96
2016-07-18T03:23:03.548Z,958.97
2016-07-18T03:24:03.551Z,959.01
2016-07-18T03:25:03.536Z,959.03
2016-07-18T03:26:03.540Z,959.03
2016-07-18T03:27:03.534Z,959.02
2016-07-18T03:28:03.534Z,959
2016-07-18T03:29:03.524Z,959.04
2016-07-18T03:30:03.528Z,958.98
2016-07-18T03:31:03.518Z,959.04
2016-07-18T03:32:03.515Z,959.05
2016-07-18T03:33:03.517Z,959.02
2016-07-18T03:34:03.509Z,959.02
2016-07-18T03:35:03.506Z,959.02
2016-07-18T03:36:03.502Z,959.01
2016-07-18T03:37:03.509Z,959.02
2016-07-18T03:38:03.495Z,959.03
2016-07-18T03:39:03.496Z,959.09
2016-07-18T03:40:03.507Z,959.11
2016-07-18T03:41:03.488Z,959.08
2016-07-18T03:42:03.489Z,959.04
2016-07-18T03:43:03.483Z,959.09
2016-07-18T03:44:03.481Z,959.08
2016-07-18T03:45:03.481Z,959.09
2016-07-18T03:46:03.473Z,959.09
2016-07-18T03:47:03.474Z,959.09
2016-07-18T03:48:03.471Z,959.09
2016-07-18T03:49:03.464Z,959.11
2016-07-18T03:50:03.467Z,959.13
2016-07-18T03:51:03.457Z,959.11
2016-07-18T03:52:03.466Z,959.1
2016-07-18T03:53:03.455Z,959.12
2016-07-18T03:54:03.454Z,959.14
2016-07-18T03:55:03.445Z,959.14
2016-07-18T03:56:03.447Z,959.13
2016-07-18T03:57:03.437Z,959.12
2016-07-18T03:58:03.436Z,959.15
2016-07-18T03:59:03.440Z,959.19
2016-07-18T04:00:03.432Z,959.16
2016-07-18T04:01:03.433Z,959.15
2016-07-18T04:02:03.428Z,959.15
2016-07-18T04:03:03.428Z,959.17
2016-07-18T04:04:03.419Z,959.1
2016-07-18T04:05:03.419Z,959.12
2016-07-18T04:06:03.414Z,959.15
2016-07-18T04:07:03.414Z,959.16
2016-07-18T04:08:03.412Z,959.2
2016-07-18T04:09:03.408Z,959.18
2016-07-18T04:10:03.419Z,959.19
2016-07-18T04:11:03.406Z,959.18
2016-07-18T04:12:03.398Z,959.21
2016-07-18T04:13:03.403Z,959.2
2016-07-18T04:14:03.395Z,959.2
2016-07-18T04:15:03.398Z,959.17
2016-07-18T04:16:03.392Z,959.17
2016-07-18T04:17:03.382Z,959.17
2016-07-18T04:18:03.384Z,959.18
2016-07-18T04:19:03.380Z,959.19
2016-07-18T04:20:03.381Z,959.19
2016-07-18T04:21:03.370Z,959.19
2016-07-18T04:22:03.374Z,959.19
2016-07-18T04:23:03.369Z,959.22
2016-07-18T04:24:03.361Z,959.23
2016-07-18T04:25:03.361Z,959.25
2016-07-18T04:26:03.356Z,959.25
2016-07-18T04:27:03.359Z,959.27
2016-07-18T04:28:03.357Z,959.28
2016-07-18T04:29:03.346Z,959.3
2016-07-18T04:30:03.347Z,959.27
2016-07-18T04:31:03.342Z,959.32
2016-07-18T04:32:03.341Z,959.34
2016-07-18T04:33:03.353Z,959.33
2016-07-18T04:34:03.354Z,959.34
2016-07-18T04:35:03.336Z,959.35
2016-07-18T04:36:03.328Z,959.35
2016-07-18T04:37:03.330Z,959.34
2016-07-18T04:38:03.322Z,959.3
2016-07-18T04:39:03.321Z,959.33
2016-07-18T04:40:03.316Z,959.33
2016-07-18T04:41:03.318Z,959.35
2016-07-18T04:42:03.312Z,959.35
2016-07-18T04:43:03.316Z,959.32
2016-07-18T04:44:03.308Z,959.33
2016-07-18T04:45:03.315Z,959.33
2016-07-18T04:46:03.300Z,959.26
2016-07-18T04:47:03.298Z,959.31
2016-07-18T04:48:03.297Z,959.32
2016-07-18T04:49:03.293Z,959.29
2016-07-18T04:50:03.296Z,959.33
2016-07-18T04:51:03.292Z,959.32
2016-07-18T04:52:03.286Z,959.34
2016-07-18T04:53:03.295Z,959.37
2016-07-18T04:54:03.298Z,959.36
2016-07-18T04:55:03.278Z,959.35
2016-07-18T04:56:03.275Z,959.36
2016-07-18T04:57:03.277Z,959.37
2016-07-18T04:58:03.282Z,959.33
2016-07-18T04:59:03.265Z,959.37
2016-07-18T05:00:03.265Z,959.41
2016-07-18T05:01:03.270Z,959.37
2016-07-18T05:02:03.258Z,959.4
2016-07-18T05:03:03.262Z,959.4
2016-07-18T05:04:03.287Z,959.41
2016-07-18T05:05:03.251Z,959.37
2016-07-18T05:06:03.249Z,959.39
2016-07-18T05:07:03.253Z,959.39
2016-07-18T05:08:03.245Z,959.38
2016-07-18T05:09:03.239Z,959.37
2016-07-18T05:10:03.242Z,959.41
2016-07-18T05:11:03.235Z,959.41
2016-07-18T05:12:03.236Z,959.42
2016-07-18T05:13:03.227Z,959.46
2016-07-18T05:14:03.245Z,959.47
2016-07-18T05:15:03.245Z,959.46
2016-07-18T05:16:03.226Z,959.47
2016-07-18T05:17:03.216Z,959.51
2016-07-18T05:18:03.215Z,959.51
2016-07-18T05:19:03.213Z,959.49
2016-07-18T05:20:03.210Z,959.5
2016-07-18T05:21:03.209Z,959.48
2016-07-18T05:22:03.204Z,959.52
2016-07-18T05:23:03.204Z,959.53
2016-07-18T05:24:03.207Z,959.57
2016-07-18T05:25:03.212Z,959.53
2016-07-18T05:26:03.196Z,959.59
2016-07-18T05:27:03.245Z,959.62
2016-07-18T05:28:03.186Z,959.64
2016-07-18T05:29:03.189Z,959.58
2016-07-18T05:30:03.185Z,959.59
2016-07-18T05:31:03.185Z,959.6
2016-07-18T05:32:03.176Z,959.59
2016-07-18T05:33:03.181Z,959.6
2016-07-18T05:34:03.194Z,959.61
2016-07-18T05:35:03.181Z,959.59
2016-07-18T05:36:03.169Z,959.6
2016-07-18T05:37:03.169Z,959.59
2016-07-18T05:38:03.162Z,959.57
2016-07-18T05:39:03.161Z,959.57
2016-07-18T05:40:03.161Z,959.57
2016-07-18T05:41:03.156Z,959.56
2016-07-18T05:42:03.151Z,959.52
2016-07-18T05:43:03.155Z,959.53
2016-07-18T05:44:03.158Z,959.55
2016-07-18T05:45:03.159Z,959.51
2016-07-18T05:46:03.165Z,959.58
2016-07-18T05:47:03.143Z,959.55
2016-07-18T05:48:03.135Z,959.54
2016-07-18T05:49:03.131Z,959.55
2016-07-18T05:50:03.128Z,959.53
2016-07-18T05:51:03.130Z,959.59
2016-07-18T05:52:03.125Z,959.58
2016-07-18T05:53:03.121Z,959.59
2016-07-18T05:54:03.123Z,959.57
2016-07-18T05:55:03.127Z,959.61
2016-07-18T05:56:03.140Z,959.58
2016-07-18T05:57:03.149Z,959.6
2016-07-18T05:58:03.155Z,959.56
2016-07-18T05:59:03.164Z,959.56
2016-07-18T06:00:03.120Z,959.61
2016-07-18T06:01:03.111Z,959.65
2016-07-18T06:02:03.120Z,959.64
2016-07-18T06:03:03.107Z,959.67
2016-07-18T06:04:03.107Z,959.7
2016-07-18T06:05:03.105Z,959.65
2016-07-18T06:06:03.107Z,959.61
2016-07-18T06:07:03.115Z,959.61
2016-07-18T06:08:03.123Z,959.61
2016-07-18T06:09:03.130Z,959.65
2016-07-18T06:10:03.141Z,959.62
2016-07-18T06:11:03.149Z,959.62
2016-07-18T06:12:03.081Z,959.62
2016-07-18T06:13:03.072Z,959.64
2016-07-18T06:14:03.072Z,959.64
2016-07-18T06:15:03.083Z,959.67
2016-07-18T06:16:03.078Z,959.7
2016-07-18T06:17:03.092Z,959.66
2016-07-18T06:18:03.098Z,959.73
2016-07-18T06:19:03.107Z,959.66
2016-07-18T06:20:03.102Z,959.7
2016-07-18T06:21:03.124Z,959.69
2016-07-18T06:22:03.130Z,959.71
2016-07-18T06:23:03.141Z,959.76
2016-07-18T06:24:03.145Z,959.7
2016-07-18T06:25:03.048Z,959.69
2016-07-18T06:26:03.049Z,959.76
2016-07-18T06:27:03.063Z,959.77
2016-07-18T06:28:03.069Z,959.72
2016-07-18T06:29:03.069Z,959.73
2016-07-18T06:30:03.085Z,959.73
2016-07-18T06:31:03.099Z,959.74
2016-07-18T06:32:03.109Z,959.72
2016-07-18T06:33:03.109Z,959.69
2016-07-18T06:34:03.145Z,959.72
2016-07-18T06:35:03.131Z,959.71
2016-07-18T06:36:03.118Z,959.74
2016-07-18T06:37:03.034Z,959.72
2016-07-18T06:38:03.048Z,959.74
2016-07-18T06:39:03.041Z,959.74
2016-07-18T06:40:03.058Z,959.76
2016-07-18T06:41:03.055Z,959.72
2016-07-18T06:42:03.067Z,959.74
2016-07-18T06:43:03.073Z,959.77
2016-07-18T06:44:03.078Z,959.83
2016-07-18T06:45:03.083Z,959.79
2016-07-18T06:46:03.103Z,959.78
2016-07-18T06:47:03.040Z,959.8
2016-07-18T06:48:03.050Z,959.79
2016-07-18T06:49:03.059Z,959.82
2016-07-18T06:50:03.042Z,959.87
2016-07-18T06:51:03.028Z,959.88
2016-07-18T06:52:03.036Z,959.87
2016-07-18T06:53:03.046Z,959.94
2016-07-18T06:54:03.039Z,959.92
2016-07-18T06:55:03.058Z,959.9
2016-07-18T06:56:03.062Z,959.96
2016-07-18T06:57:03.077Z,959.91
2016-07-18T06:58:03.021Z,959.99
2016-07-18T06:59:03.042Z,960
2016-07-18T07:00:03.030Z,960.01
2016-07-18T07:01:03.042Z,959.92
2016-07-18T07:02:03.013Z,960.07
2016-07-18T07:03:03.018Z,960.11
2016-07-18T07:04:03.018Z,959.82
2016-07-18T07:05:03.028Z,960.08
2016-07-18T07:06:03.039Z,959.83
2016-07-18T07:07:03.042Z,960.06
2016-07-18T07:08:03.050Z,960.05
2016-07-18T07:09:03.061Z,960.12
2016-07-18T07:10:03.062Z,960.15
2016-07-18T07:11:03.015Z,960.2
2016-07-18T07:12:03.700Z,960.23
2016-07-18T07:13:03.047Z,959.9
2016-07-18T07:14:03.007Z,959.93
2016-07-18T07:15:03.017Z,959.87
2016-07-18T07:16:03.014Z,959.89
2016-07-18T07:17:03.039Z,960.18
2016-07-18T07:18:03.036Z,959.87
2016-07-18T07:19:03.031Z,959.86
2016-07-18T07:20:03.032Z,960.01
2016-07-18T07:21:03.042Z,959.88
2016-07-18T07:22:03.054Z,959.94
2016-07-18T07:23:03.061Z,959.95
2016-07-18T07:24:03.073Z,959.95
2016-07-18T07:25:03.070Z,960.04
2016-07-18T07:26:03.078Z,960.02
2016-07-18T07:27:03.007Z,960.01
2016-07-18T07:28:03.007Z,959.89
2016-07-18T07:29:03.008Z,959.95
2016-07-18T07:30:03.016Z,960.02
2016-07-18T07:31:03.016Z,960.01
2016-07-18T07:32:03.030Z,959.98
2016-07-18T07:33:03.032Z,960.05
2016-07-18T07:34:03.046Z,959.95
2016-07-18T07:35:03.044Z,959.96
2016-07-18T07:36:03.053Z,960.11
2016-07-18T07:37:03.060Z,959.93
2016-07-18T07:38:03.070Z,960.03
2016-07-18T07:39:03.083Z,959.96
2016-07-18T07:40:03.045Z,959.99
2016-07-18T07:41:03.047Z,959.99
2016-07-18T07:42:03.052Z,960.1
2016-07-18T07:43:03.055Z,960.07
2016-07-18T07:44:03.058Z,960.08
2016-07-18T07:45:03.064Z,960.01
2016-07-18T07:46:03.071Z,960.05
2016-07-18T07:47:03.074Z,960
2016-07-18T07:48:03.081Z,960.05
2016-07-18T07:49:03.083Z,960.04
2016-07-18T07:50:03.088Z,960.05
2016-07-18T07:51:03.098Z,960.09
2016-07-18T07:52:03.109Z,960.08
2016-07-18T07:53:03.101Z,960.07
2016-07-18T07:54:03.119Z,960.08
2016-07-18T07:55:03.113Z,960.05
2016-07-18T07:56:03.121Z,960.12
2016-07-18T07:57:03.122Z,960.09
2016-07-18T07:58:03.139Z,960.05
2016-07-18T07:59:03.134Z,960.06
2016-07-18T08:00:03.147Z,960.03
2016-07-18T08:01:03.166Z,960.03
2016-07-18T08:02:03.159Z,959.93
2016-07-18T08:03:03.162Z,960.08
2016-07-18T08:04:03.175Z,960.02
2016-07-18T08:05:03.189Z,959.93
2016-07-18T08:06:03.184Z,959.95
2016-07-18T08:07:03.189Z,959.98
2016-07-18T08:08:03.207Z,959.86
2016-07-18T08:09:03.210Z,959.88
2016-07-18T08:10:03.212Z,959.92
2016-07-18T08:11:03.233Z,959.93
2016-07-18T08:12:03.468Z,959.85
2016-07-18T08:13:03.232Z,959.86
2016-07-18T08:14:03.242Z,959.84
2016-07-18T08:15:03.267Z,959.89
2016-07-18T08:16:03.254Z,959.87
2016-07-18T08:17:03.265Z,959.86
2016-07-18T08:18:03.269Z,959.84
2016-07-18T08:19:03.276Z,959.92
2016-07-18T08:20:03.277Z,959.91
2016-07-18T08:21:03.281Z,959.87
2016-07-18T08:22:03.291Z,959.9
2016-07-18T08:23:03.293Z,959.9
2016-07-18T08:24:03.301Z,959.93
2016-07-18T08:25:03.303Z,959.87
2016-07-18T08:26:03.307Z,959.86
2016-07-18T08:27:03.316Z,959.89
2016-07-18T08:28:03.324Z,959.87
2016-07-18T08:29:03.321Z,959.85
2016-07-18T08:30:03.326Z,959.89
2016-07-18T08:31:03.328Z,959.87
2016-07-18T08:32:03.336Z,959.9
2016-07-18T08:33:03.341Z,959.87
2016-07-18T08:34:03.339Z,959.92
2016-07-18T08:35:03.346Z,960.01
2016-07-18T08:36:03.349Z,959.96
2016-07-18T08:37:03.351Z,959.97
2016-07-18T08:38:03.355Z,959.93
2016-07-18T08:39:03.356Z,959.98
2016-07-18T08:40:03.365Z,959.94
2016-07-18T08:41:03.362Z,959.96
2016-07-18T08:42:03.369Z,959.96
2016-07-18T08:43:03.371Z,960.03
2016-07-18T08:44:03.375Z,960.03
2016-07-18T08:45:03.375Z,960.04
2016-07-18T08:46:03.384Z,960.03
2016-07-18T08:47:03.383Z,960.07
2016-07-18T08:48:03.421Z,960.09
2016-07-18T08:49:03.404Z,959.99
2016-07-18T08:50:03.409Z,960.06
2016-07-18T08:51:03.416Z,960.07
2016-07-18T08:52:03.417Z,960.06
2016-07-18T08:53:03.602Z,960.1
2016-07-18T08:54:03.410Z,960.07
2016-07-18T08:55:03.406Z,960.09
2016-07-18T08:56:03.408Z,960.07
2016-07-18T08:57:03.405Z,960.08
2016-07-18T08:58:03.409Z,960.08
2016-07-18T08:59:03.611Z,960.06
2016-07-18T09:00:03.432Z,960.05
2016-07-18T09:01:03.432Z,960.05
2016-07-18T09:02:03.433Z,960.04
2016-07-18T09:03:03.435Z,960.03
2016-07-18T09:04:03.442Z,960.06
2016-07-18T09:05:03.426Z,960.11
2016-07-18T09:06:03.425Z,960.09
2016-07-18T09:07:03.425Z,960.1
2016-07-18T09:08:03.432Z,960.08
2016-07-18T09:09:03.439Z,960.1
2016-07-18T09:10:03.435Z,960.15
2016-07-18T09:11:03.436Z,960.11
2016-07-18T09:12:03.442Z,960.14
2016-07-18T09:13:03.447Z,960.2
2016-07-18T09:14:03.443Z,960.22
2016-07-18T09:15:03.447Z,960.17
2016-07-18T09:16:03.448Z,960.19
2016-07-18T09:17:03.450Z,960.21
2016-07-18T09:18:03.450Z,960.22
2016-07-18T09:19:03.476Z,960.22
2016-07-18T09:20:03.475Z,960.21
2016-07-18T09:21:03.472Z,960.18
2016-07-18T09:22:03.469Z,960.18
2016-07-18T09:23:03.469Z,960.2
2016-07-18T09:24:03.619Z,960.22
2016-07-18T09:25:03.468Z,960.25
2016-07-18T09:26:03.469Z,960.25
2016-07-18T09:27:03.472Z,960.23
2016-07-18T09:28:03.474Z,960.2
2016-07-18T09:29:03.476Z,960.19
2016-07-18T09:30:03.476Z,960.22
2016-07-18T09:31:03.484Z,960.21
2016-07-18T09:32:03.486Z,960.2
2016-07-18T09:33:03.483Z,960.15
2016-07-18T09:34:03.486Z,960.12
2016-07-18T09:35:03.486Z,960.22
2016-07-18T09:36:03.485Z,960.16
2016-07-18T09:37:03.520Z,960.15
2016-07-18T09:38:03.491Z,960.18
2016-07-18T09:39:03.494Z,960.14
2016-07-18T09:40:03.502Z,960.13
2016-07-18T09:41:03.499Z,960.15
2016-07-18T09:42:03.499Z,960.1
2016-07-18T09:43:03.500Z,960.04
2016-07-18T09:44:03.500Z,960.06
2016-07-18T09:45:03.503Z,960.12
2016-07-18T09:46:03.505Z,960.14
2016-07-18T09:47:03.504Z,960.12
2016-07-18T09:48:03.508Z,960.09
2016-07-18T09:49:03.513Z,960.15
2016-07-18T09:50:03.523Z,960.13
2016-07-18T09:51:03.511Z,960.14
2016-07-18T09:52:03.516Z,960.15
2016-07-18T09:53:03.518Z,960.15
2016-07-18T09:54:03.517Z,960.15
2016-07-18T09:55:03.521Z,960.12
2016-07-18T09:56:03.521Z,960.08
2016-07-18T09:57:03.521Z,960.12
2016-07-18T09:58:03.523Z,960.1
2016-07-18T09:59:03.523Z,960.09
2016-07-18T10:00:03.528Z,960.1
2016-07-18T10:01:03.526Z,960.08
2016-07-18T10:02:03.532Z,960.05
2016-07-18T10:03:03.531Z,960.07
2016-07-18T10:04:03.532Z,960.08
2016-07-18T10:05:03.533Z,960.05
2016-07-18T10:06:03.536Z,960.14
2016-07-18T10:07:03.539Z,960.15
2016-07-18T10:08:03.546Z,960.07
2016-07-18T10:09:03.550Z,960.12
2016-07-18T10:10:03.552Z,960.13
2016-07-18T10:11:03.545Z,960.06
2016-07-18T10:12:03.550Z,960.12
2016-07-18T10:13:03.547Z,960.15
2016-07-18T10:14:03.548Z,960.1
2016-07-18T10:15:03.549Z,960.19
2016-07-18T10:16:03.551Z,960.17
2016-07-18T10:17:03.622Z,960.17
2016-07-18T10:18:03.557Z,960.17
2016-07-18T10:19:03.560Z,960.12
2016-07-18T10:20:03.568Z,960.16
2016-07-18T10:21:03.568Z,960.2
2016-07-18T10:22:03.563Z,960.21
2016-07-18T10:23:03.563Z,960.21
2016-07-18T10:24:03.565Z,960.21
2016-07-18T10:25:03.565Z,960.25
2016-07-18T10:26:03.572Z,960.28
2016-07-18T10:27:03.574Z,960.23
2016-07-18T10:28:03.581Z,960.25
2016-07-18T10:29:03.575Z,960.23
2016-07-18T10:30:03.598Z,960.3
2016-07-18T10:31:03.576Z,960.25
2016-07-18T10:32:03.586Z,960.23
2016-07-18T10:33:03.580Z,960.21
2016-07-18T10:34:03.580Z,960.21
2016-07-18T10:35:03.582Z,960.15
2016-07-18T10:36:03.583Z,960.2
2016-07-18T10:37:03.587Z,960.18
2016-07-18T10:38:03.657Z,960.19
2016-07-18T10:39:03.590Z,960.16
2016-07-18T10:40:03.596Z,960.18
2016-07-18T10:41:03.592Z,960.14
2016-07-18T10:42:03.594Z,960.17
2016-07-18T10:43:03.596Z,960.16
2016-07-18T10:44:03.600Z,960.13
2016-07-18T10:45:03.604Z,960.09
2016-07-18T10:46:03.605Z,960.08
2016-07-18T10:47:03.638Z,960.09
2016-07-18T10:48:03.606Z,960.17
2016-07-18T10:49:03.604Z,960.19
2016-07-18T10:50:03.608Z,960.12
2016-07-18T10:51:03.607Z,960.18
2016-07-18T10:52:03.609Z,960.23
2016-07-18T10:53:03.611Z,960.23
2016-07-18T10:54:03.614Z,960.19
2016-07-18T10:55:03.615Z,960.18
2016-07-18T10:56:03.617Z,960.19
2016-07-18T10:57:03.619Z,960.16
2016-07-18T10:58:03.621Z,960.13
2016-07-18T10:59:03.625Z,960.17
2016-07-18T11:00:03.627Z,960.12
2016-07-18T11:01:03.627Z,960.14
2016-07-18T11:02:03.631Z,960.15
2016-07-18T11:03:03.628Z,960.16
2016-07-18T11:04:03.633Z,960.17
2016-07-18T11:05:03.637Z,960.18
2016-07-18T11:06:03.639Z,960.18
2016-07-18T11:07:03.651Z,960.21
2016-07-18T11:08:03.637Z,960.14
2016-07-18T11:09:03.641Z,960.13
2016-07-18T11:10:03.641Z,960.12
2016-07-18T11:11:03.644Z,960.14
2016-07-18T11:12:03.646Z,960.15
2016-07-18T11:13:03.649Z,960.11
2016-07-18T11:14:03.654Z,960.11
2016-07-18T11:15:03.655Z,960.15
2016-07-18T11:16:03.655Z,960.15
2016-07-18T11:17:03.656Z,960.13
2016-07-18T11:18:03.658Z,960.11
2016-07-18T11:19:03.663Z,960.08
2016-07-18T11:20:03.664Z,960.12
2016-07-18T11:21:03.670Z,960.09
2016-07-18T11:22:03.669Z,960.06
2016-07-18T11:23:03.671Z,960.07
2016-07-18T11:24:03.681Z,960.07
2016-07-18T11:25:03.675Z,960.09
2016-07-18T11:26:03.679Z,960.1
2016-07-18T11:27:03.683Z,960.11
2016-07-18T11:28:03.690Z,960.04
2016-07-18T11:29:03.685Z,960.1
2016-07-18T11:30:03.688Z,960.06
2016-07-18T11:31:03.691Z,960.06
2016-07-18T11:32:03.694Z,960.04
2016-07-18T11:33:03.696Z,960.04
2016-07-18T11:34:03.699Z,960.11
2016-07-18T11:35:03.702Z,960.06
2016-07-18T11:36:03.706Z,960.08
2016-07-18T11:37:03.735Z,960.06
2016-07-18T11:38:03.708Z,960.04
2016-07-18T11:39:03.712Z,960.13
2016-07-18T11:40:03.715Z,960.11
2016-07-18T11:41:03.716Z,960.12
2016-07-18T11:42:03.725Z,960.08
2016-07-18T11:43:03.727Z,960.02
2016-07-18T11:44:03.725Z,960.01
2016-07-18T11:45:03.752Z,960.03
2016-07-18T11:46:03.796Z,959.99
2016-07-18T11:47:03.733Z,959.99
2016-07-18T11:48:03.733Z,959.98
2016-07-18T11:49:03.740Z,960.03
2016-07-18T11:50:03.747Z,960.01
2016-07-18T11:51:03.742Z,960.01
2016-07-18T11:52:03.750Z,959.98
2016-07-18T11:53:03.749Z,960
2016-07-18T11:54:03.752Z,959.97
2016-07-18T11:55:03.753Z,959.99
2016-07-18T11:56:03.756Z,960.02
2016-07-18T11:57:03.759Z,959.98
2016-07-18T11:58:03.768Z,959.99
2016-07-18T11:59:03.775Z,959.99
2016-07-18T12:00:03.767Z,959.98
2016-07-18T12:01:03.770Z,960.05
2016-07-18T12:02:03.773Z,960.01
2016-07-18T12:03:03.775Z,959.98
2016-07-18T12:04:03.780Z,959.98
2016-07-18T12:05:03.785Z,959.95
2016-07-18T12:06:03.787Z,959.9
2016-07-18T12:07:03.787Z,959.92
2016-07-18T12:08:03.791Z,959.92
2016-07-18T12:09:03.793Z,959.91
2016-07-18T12:10:03.794Z,959.95
2016-07-18T12:11:03.799Z,959.97
2016-07-18T12:12:03.801Z,959.95
2016-07-18T12:13:03.808Z,959.89
2016-07-18T12:14:03.805Z,959.98
2016-07-18T12:15:03.808Z,959.95
2016-07-18T12:16:03.821Z,959.94
2016-07-18T12:17:03.813Z,959.97
2016-07-18T12:18:03.816Z,959.93
2016-07-18T12:19:03.821Z,960
2016-07-18T12:20:03.830Z,959.96
2016-07-18T12:21:03.830Z,959.92
2016-07-18T12:22:03.831Z,959.95
2016-07-18T12:23:03.833Z,959.91
2016-07-18T12:24:03.839Z,959.91
2016-07-18T12:25:03.842Z,959.89
2016-07-18T12:26:03.841Z,959.92
2016-07-18T12:27:03.847Z,959.9
2016-07-18T12:28:03.852Z,959.86
2016-07-18T12:29:03.849Z,959.8
2016-07-18T12:30:03.856Z,959.82